sensor_id;sensor_type;location;lat;lon;timestamp;P1;durP1;ratioP1;P2;durP2;ratioP2
8964;SDS011;4517;49.020;12.066;2022-07-29T00:00:15;3.50;;;2.80;;
8964;SDS011;4517;49.020;12.066;2022-07-29T00:02:42;5.13;;;2.80;;
8964;SDS011;4517;49.020;12.066;2022-07-29T00:05:07;4.80;;;2.60;;
8964;SDS011;4517;49.020;12.066;2022-07-29T00:07:33;4.97;;;3.43;;
8964;SDS011;4517;49.020;12.066;2022-07-29T00:10:00;5.53;;;3.70;;
8964;SDS011;4517;49.020;12.066;2022-07-29T00:12:26;4.40;;;3.03;;
8964;SDS011;4517;49.020;12.066;2022-07-29T00:14:52;11.07;;;2.90;;
8964;SDS011;4517;49.020;12.066;2022-07-29T00:17:18;3.37;;;2.83;;
8964;SDS011;4517;49.020;12.066;2022-07-29T00:19:44;5.20;;;3.27;;
8964;SDS011;4517;49.020;12.066;2022-07-29T00:22:09;4.17;;;2.77;;
8964;SDS011;4517;49.020;12.066;2022-07-29T00:24:35;3.50;;;2.67;;
8964;SDS011;4517;49.020;12.066;2022-07-29T00:27:00;2.93;;;2.57;;
8964;SDS011;4517;49.020;12.066;2022-07-29T00:29:26;6.33;;;2.57;;
8964;SDS011;4517;49.020;12.066;2022-07-29T00:31:51;4.00;;;2.97;;
8964;SDS011;4517;49.020;12.066;2022-07-29T00:34:17;4.77;;;3.10;;
8964;SDS011;4517;49.020;12.066;2022-07-29T00:37:01;6.47;;;2.70;;
8964;SDS011;4517;49.020;12.066;2022-07-29T00:39:27;4.27;;;3.27;;
8964;SDS011;4517;49.020;12.066;2022-07-29T00:41:53;3.93;;;3.30;;
8964;SDS011;4517;49.020;12.066;2022-07-29T00:44:18;3.53;;;3.20;;
8964;SDS011;4517;49.020;12.066;2022-07-29T00:46:44;6.50;;;3.90;;
8964;SDS011;4517;49.020;12.066;2022-07-29T00:49:09;4.97;;;3.40;;
8964;SDS011;4517;49.020;12.066;2022-07-29T00:51:35;4.13;;;3.20;;
8964;SDS011;4517;49.020;12.066;2022-07-29T00:54:02;5.50;;;3.50;;
8964;SDS011;4517;49.020;12.066;2022-07-29T00:56:29;4.53;;;2.97;;
8964;SDS011;4517;49.020;12.066;2022-07-29T00:58:56;3.63;;;3.00;;
8964;SDS011;4517;49.020;12.066;2022-07-29T01:01:22;4.23;;;3.80;;
8964;SDS011;4517;49.020;12.066;2022-07-29T01:03:48;4.20;;;3.20;;
8964;SDS011;4517;49.020;12.066;2022-07-29T01:06:14;6.90;;;3.20;;
8964;SDS011;4517;49.020;12.066;2022-07-29T01:08:42;4.60;;;3.37;;
8964;SDS011;4517;49.020;12.066;2022-07-29T01:11:08;6.03;;;3.40;;
8964;SDS011;4517;49.020;12.066;2022-07-29T01:13:34;7.13;;;3.80;;
8964;SDS011;4517;49.020;12.066;2022-07-29T01:16:02;6.23;;;4.37;;
8964;SDS011;4517;49.020;12.066;2022-07-29T01:18:37;5.23;;;4.00;;
8964;SDS011;4517;49.020;12.066;2022-07-29T01:24:11;4.60;;;3.40;;
8964;SDS011;4517;49.020;12.066;2022-07-29T01:26:42;8.00;;;3.57;;
8964;SDS011;4517;49.020;12.066;2022-07-29T01:34:30;4.40;;;4.00;;
8964;SDS011;4517;49.020;12.066;2022-07-29T01:37:07;5.57;;;4.53;;
8964;SDS011;4517;49.020;12.066;2022-07-29T01:39:43;7.70;;;4.03;;
8964;SDS011;4517;49.020;12.066;2022-07-29T01:42:14;9.33;;;3.77;;
8964;SDS011;4517;49.020;12.066;2022-07-29T01:44:50;4.33;;;3.73;;
8964;SDS011;4517;49.020;12.066;2022-07-29T01:47:26;4.90;;;3.27;;
8964;SDS011;4517;49.020;12.066;2022-07-29T01:49:58;6.70;;;3.47;;
8964;SDS011;4517;49.020;12.066;2022-07-29T01:52:29;3.97;;;3.00;;
8964;SDS011;4517;49.020;12.066;2022-07-29T01:55:02;6.10;;;3.50;;
8964;SDS011;4517;49.020;12.066;2022-07-29T01:57:32;6.57;;;3.40;;
8964;SDS011;4517;49.020;12.066;2022-07-29T02:00:00;3.73;;;2.87;;
8964;SDS011;4517;49.020;12.066;2022-07-29T02:02:28;3.27;;;2.97;;
8964;SDS011;4517;49.020;12.066;2022-07-29T02:04:56;4.00;;;2.97;;
8964;SDS011;4517;49.020;12.066;2022-07-29T02:07:23;5.80;;;3.23;;
8964;SDS011;4517;49.020;12.066;2022-07-29T02:09:53;5.63;;;3.00;;
8964;SDS011;4517;49.020;12.066;2022-07-29T02:12:20;5.27;;;2.87;;
8964;SDS011;4517;49.020;12.066;2022-07-29T02:14:50;4.30;;;3.13;;
8964;SDS011;4517;49.020;12.066;2022-07-29T02:17:21;4.53;;;3.00;;
8964;SDS011;4517;49.020;12.066;2022-07-29T02:19:53;3.90;;;2.63;;
8964;SDS011;4517;49.020;12.066;2022-07-29T02:22:22;4.40;;;3.00;;
8964;SDS011;4517;49.020;12.066;2022-07-29T02:24:49;8.00;;;3.20;;
8964;SDS011;4517;49.020;12.066;2022-07-29T02:27:17;3.27;;;2.97;;
8964;SDS011;4517;49.020;12.066;2022-07-29T02:29:45;5.93;;;3.00;;
8964;SDS011;4517;49.020;12.066;2022-07-29T02:32:12;5.10;;;3.40;;
8964;SDS011;4517;49.020;12.066;2022-07-29T02:34:39;3.47;;;2.63;;
8964;SDS011;4517;49.020;12.066;2022-07-29T02:37:08;3.60;;;3.10;;
8964;SDS011;4517;49.020;12.066;2022-07-29T02:39:35;4.60;;;3.10;;
8964;SDS011;4517;49.020;12.066;2022-07-29T02:42:03;6.10;;;3.17;;
8964;SDS011;4517;49.020;12.066;2022-07-29T02:44:32;10.40;;;3.20;;
8964;SDS011;4517;49.020;12.066;2022-07-29T02:49:43;4.63;;;3.03;;
8964;SDS011;4517;49.020;12.066;2022-07-29T02:59:57;4.73;;;3.20;;
8964;SDS011;4517;49.020;12.066;2022-07-29T03:02:25;4.00;;;2.80;;
8964;SDS011;4517;49.020;12.066;2022-07-29T03:04:52;10.10;;;3.30;;
8964;SDS011;4517;49.020;12.066;2022-07-29T03:07:20;6.60;;;3.13;;
8964;SDS011;4517;49.020;12.066;2022-07-29T03:09:46;4.17;;;2.60;;
8964;SDS011;4517;49.020;12.066;2022-07-29T03:12:13;3.77;;;2.90;;
8964;SDS011;4517;49.020;12.066;2022-07-29T03:14:40;6.80;;;3.50;;
8964;SDS011;4517;49.020;12.066;2022-07-29T03:17:06;4.57;;;3.40;;
8964;SDS011;4517;49.020;12.066;2022-07-29T03:19:35;4.20;;;3.40;;
8964;SDS011;4517;49.020;12.066;2022-07-29T03:22:01;5.50;;;3.43;;
8964;SDS011;4517;49.020;12.066;2022-07-29T03:24:33;7.50;;;3.20;;
8964;SDS011;4517;49.020;12.066;2022-07-29T03:27:00;4.57;;;2.97;;
8964;SDS011;4517;49.020;12.066;2022-07-29T03:29:27;3.40;;;3.10;;
8964;SDS011;4517;49.020;12.066;2022-07-29T03:31:53;4.57;;;3.20;;
8964;SDS011;4517;49.020;12.066;2022-07-29T03:34:19;3.90;;;3.50;;
8964;SDS011;4517;49.020;12.066;2022-07-29T03:36:45;4.70;;;3.70;;
8964;SDS011;4517;49.020;12.066;2022-07-29T03:39:11;4.77;;;3.40;;
8964;SDS011;4517;49.020;12.066;2022-07-29T03:41:41;8.03;;;3.80;;
8964;SDS011;4517;49.020;12.066;2022-07-29T03:44:08;3.20;;;2.90;;
8964;SDS011;4517;49.020;12.066;2022-07-29T03:46:35;4.03;;;3.40;;
8964;SDS011;4517;49.020;12.066;2022-07-29T03:49:04;6.90;;;3.13;;
8964;SDS011;4517;49.020;12.066;2022-07-29T03:51:33;5.27;;;3.50;;
8964;SDS011;4517;49.020;12.066;2022-07-29T03:54:00;5.97;;;3.30;;
8964;SDS011;4517;49.020;12.066;2022-07-29T03:56:29;5.63;;;3.60;;
8964;SDS011;4517;49.020;12.066;2022-07-29T03:58:57;4.00;;;3.60;;
8964;SDS011;4517;49.020;12.066;2022-07-29T04:01:23;5.57;;;3.60;;
8964;SDS011;4517;49.020;12.066;2022-07-29T04:03:51;3.60;;;3.03;;
8964;SDS011;4517;49.020;12.066;2022-07-29T04:06:17;4.80;;;3.40;;
8964;SDS011;4517;49.020;12.066;2022-07-29T04:08:42;8.90;;;3.20;;
8964;SDS011;4517;49.020;12.066;2022-07-29T04:11:08;3.93;;;2.90;;
8964;SDS011;4517;49.020;12.066;2022-07-29T04:13:33;7.20;;;3.63;;
8964;SDS011;4517;49.020;12.066;2022-07-29T04:15:59;6.37;;;3.57;;
8964;SDS011;4517;49.020;12.066;2022-07-29T04:18:24;3.57;;;3.23;;
8964;SDS011;4517;49.020;12.066;2022-07-29T04:20:50;5.40;;;3.03;;
8964;SDS011;4517;49.020;12.066;2022-07-29T04:23:16;6.97;;;3.30;;
8964;SDS011;4517;49.020;12.066;2022-07-29T04:25:41;6.73;;;3.60;;
8964;SDS011;4517;49.020;12.066;2022-07-29T04:28:08;5.40;;;4.03;;
8964;SDS011;4517;49.020;12.066;2022-07-29T04:30:34;4.23;;;3.63;;
8964;SDS011;4517;49.020;12.066;2022-07-29T04:33:01;4.40;;;3.30;;
8964;SDS011;4517;49.020;12.066;2022-07-29T04:35:28;11.03;;;3.60;;
8964;SDS011;4517;49.020;12.066;2022-07-29T04:37:55;6.13;;;4.10;;
8964;SDS011;4517;49.020;12.066;2022-07-29T04:40:21;10.07;;;4.07;;
8964;SDS011;4517;49.020;12.066;2022-07-29T04:42:46;5.00;;;4.10;;
8964;SDS011;4517;49.020;12.066;2022-07-29T04:45:13;15.03;;;4.40;;
8964;SDS011;4517;49.020;12.066;2022-07-29T04:47:39;6.40;;;3.30;;
8964;SDS011;4517;49.020;12.066;2022-07-29T04:50:05;5.60;;;2.97;;
8964;SDS011;4517;49.020;12.066;2022-07-29T04:52:32;4.17;;;3.40;;
8964;SDS011;4517;49.020;12.066;2022-07-29T04:54:57;2.80;;;2.47;;
8964;SDS011;4517;49.020;12.066;2022-07-29T04:57:23;10.30;;;3.40;;
8964;SDS011;4517;49.020;12.066;2022-07-29T04:59:48;8.23;;;3.60;;
8964;SDS011;4517;49.020;12.066;2022-07-29T05:02:14;7.80;;;3.10;;
8964;SDS011;4517;49.020;12.066;2022-07-29T05:04:40;3.50;;;3.20;;
8964;SDS011;4517;49.020;12.066;2022-07-29T05:07:05;8.83;;;3.47;;
8964;SDS011;4517;49.020;12.066;2022-07-29T05:09:31;5.47;;;3.50;;
8964;SDS011;4517;49.020;12.066;2022-07-29T05:11:57;4.23;;;2.70;;
8964;SDS011;4517;49.020;12.066;2022-07-29T05:14:23;5.10;;;3.87;;
8964;SDS011;4517;49.020;12.066;2022-07-29T05:16:48;3.97;;;3.33;;
8964;SDS011;4517;49.020;12.066;2022-07-29T05:19:16;5.63;;;3.43;;
8964;SDS011;4517;49.020;12.066;2022-07-29T05:21:41;4.57;;;3.40;;
8964;SDS011;4517;49.020;12.066;2022-07-29T05:24:07;6.73;;;3.70;;
8964;SDS011;4517;49.020;12.066;2022-07-29T05:26:33;6.93;;;3.77;;
8964;SDS011;4517;49.020;12.066;2022-07-29T05:28:58;5.57;;;3.10;;
8964;SDS011;4517;49.020;12.066;2022-07-29T05:31:24;10.20;;;3.40;;
8964;SDS011;4517;49.020;12.066;2022-07-29T05:33:50;6.60;;;3.53;;
8964;SDS011;4517;49.020;12.066;2022-07-29T05:36:16;4.57;;;4.13;;
8964;SDS011;4517;49.020;12.066;2022-07-29T05:38:42;8.00;;;3.17;;
8964;SDS011;4517;49.020;12.066;2022-07-29T05:41:07;6.97;;;3.23;;
8964;SDS011;4517;49.020;12.066;2022-07-29T05:43:33;4.30;;;3.17;;
8964;SDS011;4517;49.020;12.066;2022-07-29T05:45:58;4.53;;;3.00;;
8964;SDS011;4517;49.020;12.066;2022-07-29T05:48:24;3.83;;;3.03;;
8964;SDS011;4517;49.020;12.066;2022-07-29T05:50:50;7.37;;;3.40;;
8964;SDS011;4517;49.020;12.066;2022-07-29T05:53:16;4.77;;;3.40;;
8964;SDS011;4517;49.020;12.066;2022-07-29T05:55:42;5.73;;;2.70;;
8964;SDS011;4517;49.020;12.066;2022-07-29T05:58:07;6.50;;;3.30;;
8964;SDS011;4517;49.020;12.066;2022-07-29T06:00:33;4.50;;;3.20;;
8964;SDS011;4517;49.020;12.066;2022-07-29T06:02:59;4.63;;;3.20;;
8964;SDS011;4517;49.020;12.066;2022-07-29T06:05:25;7.40;;;3.00;;
8964;SDS011;4517;49.020;12.066;2022-07-29T06:07:50;6.20;;;3.20;;
8964;SDS011;4517;49.020;12.066;2022-07-29T06:10:16;3.50;;;2.60;;
8964;SDS011;4517;49.020;12.066;2022-07-29T06:12:42;5.83;;;3.40;;
8964;SDS011;4517;49.020;12.066;2022-07-29T06:15:07;5.00;;;3.20;;
8964;SDS011;4517;49.020;12.066;2022-07-29T06:17:34;5.83;;;3.10;;
8964;SDS011;4517;49.020;12.066;2022-07-29T06:19:59;5.10;;;2.87;;
8964;SDS011;4517;49.020;12.066;2022-07-29T06:22:25;7.33;;;3.20;;
8964;SDS011;4517;49.020;12.066;2022-07-29T06:24:50;8.33;;;3.23;;
8964;SDS011;4517;49.020;12.066;2022-07-29T06:27:16;10.53;;;3.23;;
8964;SDS011;4517;49.020;12.066;2022-07-29T06:29:41;9.67;;;3.60;;
8964;SDS011;4517;49.020;12.066;2022-07-29T06:32:07;8.10;;;3.27;;
8964;SDS011;4517;49.020;12.066;2022-07-29T06:34:34;12.10;;;3.17;;
8964;SDS011;4517;49.020;12.066;2022-07-29T06:37:00;9.03;;;3.10;;
8964;SDS011;4517;49.020;12.066;2022-07-29T06:39:33;6.63;;;3.03;;
8964;SDS011;4517;49.020;12.066;2022-07-29T06:42:00;9.43;;;3.43;;
8964;SDS011;4517;49.020;12.066;2022-07-29T06:44:25;8.37;;;3.67;;
8964;SDS011;4517;49.020;12.066;2022-07-29T06:46:51;3.60;;;3.00;;
8964;SDS011;4517;49.020;12.066;2022-07-29T06:49:17;10.30;;;3.23;;
8964;SDS011;4517;49.020;12.066;2022-07-29T06:51:43;11.93;;;3.70;;
8964;SDS011;4517;49.020;12.066;2022-07-29T06:54:09;11.27;;;3.10;;
8964;SDS011;4517;49.020;12.066;2022-07-29T06:56:34;6.47;;;3.10;;
8964;SDS011;4517;49.020;12.066;2022-07-29T06:59:02;5.83;;;3.47;;
8964;SDS011;4517;49.020;12.066;2022-07-29T07:01:28;7.37;;;3.50;;
8964;SDS011;4517;49.020;12.066;2022-07-29T07:03:55;18.00;;;3.87;;
8964;SDS011;4517;49.020;12.066;2022-07-29T07:06:21;4.57;;;3.20;;
8964;SDS011;4517;49.020;12.066;2022-07-29T07:08:46;4.40;;;2.90;;
8964;SDS011;4517;49.020;12.066;2022-07-29T07:11:12;6.03;;;2.90;;
8964;SDS011;4517;49.020;12.066;2022-07-29T07:13:38;7.50;;;4.03;;
8964;SDS011;4517;49.020;12.066;2022-07-29T07:16:04;10.93;;;3.60;;
8964;SDS011;4517;49.020;12.066;2022-07-29T07:18:29;7.77;;;3.37;;
8964;SDS011;4517;49.020;12.066;2022-07-29T07:20:56;5.60;;;3.27;;
8964;SDS011;4517;49.020;12.066;2022-07-29T07:23:23;6.77;;;3.17;;
8964;SDS011;4517;49.020;12.066;2022-07-29T07:25:49;5.57;;;3.60;;
8964;SDS011;4517;49.020;12.066;2022-07-29T07:28:15;8.80;;;2.93;;
8964;SDS011;4517;49.020;12.066;2022-07-29T07:30:40;9.60;;;3.27;;
8964;SDS011;4517;49.020;12.066;2022-07-29T07:33:06;6.53;;;3.20;;
8964;SDS011;4517;49.020;12.066;2022-07-29T07:35:32;8.07;;;3.23;;
8964;SDS011;4517;49.020;12.066;2022-07-29T07:37:57;9.13;;;4.10;;
8964;SDS011;4517;49.020;12.066;2022-07-29T07:40:23;5.23;;;3.80;;
8964;SDS011;4517;49.020;12.066;2022-07-29T07:42:49;8.87;;;4.03;;
8964;SDS011;4517;49.020;12.066;2022-07-29T07:45:14;8.90;;;3.73;;
8964;SDS011;4517;49.020;12.066;2022-07-29T07:47:40;6.63;;;3.00;;
8964;SDS011;4517;49.020;12.066;2022-07-29T07:50:12;9.63;;;4.20;;
8964;SDS011;4517;49.020;12.066;2022-07-29T07:52:51;7.60;;;4.37;;
8964;SDS011;4517;49.020;12.066;2022-07-29T07:55:17;11.83;;;3.70;;
8964;SDS011;4517;49.020;12.066;2022-07-29T07:57:44;8.73;;;3.30;;
8964;SDS011;4517;49.020;12.066;2022-07-29T08:00:11;10.07;;;4.30;;
8964;SDS011;4517;49.020;12.066;2022-07-29T08:02:40;6.73;;;4.70;;
8964;SDS011;4517;49.020;12.066;2022-07-29T08:05:07;6.03;;;3.37;;
8964;SDS011;4517;49.020;12.066;2022-07-29T08:07:34;7.23;;;4.13;;
8964;SDS011;4517;49.020;12.066;2022-07-29T08:09:59;8.50;;;3.90;;
8964;SDS011;4517;49.020;12.066;2022-07-29T08:12:25;8.10;;;4.30;;
8964;SDS011;4517;49.020;12.066;2022-07-29T08:14:51;11.60;;;3.50;;
8964;SDS011;4517;49.020;12.066;2022-07-29T08:17:16;9.20;;;3.80;;
8964;SDS011;4517;49.020;12.066;2022-07-29T08:19:42;9.37;;;3.90;;
8964;SDS011;4517;49.020;12.066;2022-07-29T08:22:07;13.53;;;4.33;;
8964;SDS011;4517;49.020;12.066;2022-07-29T08:24:33;4.30;;;3.90;;
8964;SDS011;4517;49.020;12.066;2022-07-29T08:27:08;10.40;;;3.70;;
8964;SDS011;4517;49.020;12.066;2022-07-29T08:29:35;4.53;;;3.80;;
8964;SDS011;4517;49.020;12.066;2022-07-29T08:32:01;6.03;;;4.10;;
8964;SDS011;4517;49.020;12.066;2022-07-29T08:34:27;6.00;;;4.07;;
8964;SDS011;4517;49.020;12.066;2022-07-29T08:36:53;5.33;;;4.50;;
8964;SDS011;4517;49.020;12.066;2022-07-29T08:39:20;9.17;;;4.87;;
8964;SDS011;4517;49.020;12.066;2022-07-29T08:41:46;4.90;;;4.40;;
8964;SDS011;4517;49.020;12.066;2022-07-29T08:44:13;6.87;;;5.30;;
8964;SDS011;4517;49.020;12.066;2022-07-29T08:46:40;9.27;;;4.63;;
8964;SDS011;4517;49.020;12.066;2022-07-29T08:49:06;6.17;;;4.07;;
8964;SDS011;4517;49.020;12.066;2022-07-29T08:51:32;11.13;;;6.40;;
8964;SDS011;4517;49.020;12.066;2022-07-29T08:54:00;12.20;;;5.20;;
8964;SDS011;4517;49.020;12.066;2022-07-29T08:56:27;10.70;;;5.80;;
8964;SDS011;4517;49.020;12.066;2022-07-29T08:58:53;7.77;;;4.80;;
8964;SDS011;4517;49.020;12.066;2022-07-29T09:01:23;6.70;;;4.90;;
8964;SDS011;4517;49.020;12.066;2022-07-29T09:03:51;7.13;;;5.13;;
8964;SDS011;4517;49.020;12.066;2022-07-29T09:06:20;8.00;;;5.10;;
8964;SDS011;4517;49.020;12.066;2022-07-29T09:08:47;10.63;;;5.77;;
8964;SDS011;4517;49.020;12.066;2022-07-29T09:11:13;25.33;;;10.20;;
8964;SDS011;4517;49.020;12.066;2022-07-29T09:13:39;6.97;;;4.67;;
8964;SDS011;4517;49.020;12.066;2022-07-29T09:16:05;34.17;;;11.23;;
8964;SDS011;4517;49.020;12.066;2022-07-29T09:18:35;42.07;;;17.37;;
8964;SDS011;4517;49.020;12.066;2022-07-29T09:21:03;11.37;;;5.93;;
8964;SDS011;4517;49.020;12.066;2022-07-29T09:24:08;25.57;;;6.60;;
8964;SDS011;4517;49.020;12.066;2022-07-29T09:26:42;19.77;;;11.50;;
8964;SDS011;4517;49.020;12.066;2022-07-29T09:29:12;17.30;;;6.10;;
8964;SDS011;4517;49.020;12.066;2022-07-29T09:31:46;6.03;;;5.43;;
8964;SDS011;4517;49.020;12.066;2022-07-29T09:34:13;10.10;;;4.90;;
8964;SDS011;4517;49.020;12.066;2022-07-29T09:36:47;7.60;;;5.07;;
8964;SDS011;4517;49.020;12.066;2022-07-29T09:39:15;11.77;;;6.23;;
8964;SDS011;4517;49.020;12.066;2022-07-29T09:41:58;16.60;;;4.87;;
8964;SDS011;4517;49.020;12.066;2022-07-29T09:44:26;6.67;;;4.73;;
8964;SDS011;4517;49.020;12.066;2022-07-29T09:46:56;10.57;;;5.27;;
8964;SDS011;4517;49.020;12.066;2022-07-29T09:49:24;12.83;;;5.17;;
8964;SDS011;4517;49.020;12.066;2022-07-29T09:54:45;6.20;;;4.83;;
8964;SDS011;4517;49.020;12.066;2022-07-29T09:57:27;8.07;;;5.13;;
8964;SDS011;4517;49.020;12.066;2022-07-29T10:00:09;4.80;;;4.40;;
8964;SDS011;4517;49.020;12.066;2022-07-29T10:02:36;5.10;;;4.37;;
8964;SDS011;4517;49.020;12.066;2022-07-29T10:05:16;4.73;;;4.23;;
8964;SDS011;4517;49.020;12.066;2022-07-29T10:07:50;8.53;;;4.30;;
8964;SDS011;4517;49.020;12.066;2022-07-29T10:12:50;11.60;;;4.30;;
8964;SDS011;4517;49.020;12.066;2022-07-29T10:15:18;6.70;;;4.80;;
8964;SDS011;4517;49.020;12.066;2022-07-29T10:17:44;10.93;;;3.77;;
8964;SDS011;4517;49.020;12.066;2022-07-29T10:20:10;9.73;;;4.97;;
8964;SDS011;4517;49.020;12.066;2022-07-29T10:22:36;6.63;;;3.40;;
8964;SDS011;4517;49.020;12.066;2022-07-29T10:25:02;4.90;;;3.60;;
8964;SDS011;4517;49.020;12.066;2022-07-29T10:27:28;11.33;;;3.90;;
8964;SDS011;4517;49.020;12.066;2022-07-29T10:29:53;5.10;;;3.87;;
8964;SDS011;4517;49.020;12.066;2022-07-29T10:32:22;3.70;;;3.40;;
8964;SDS011;4517;49.020;12.066;2022-07-29T10:35:11;6.67;;;4.13;;
8964;SDS011;4517;49.020;12.066;2022-07-29T10:38:04;6.93;;;4.00;;
8964;SDS011;4517;49.020;12.066;2022-07-29T10:43:54;4.93;;;3.20;;
8964;SDS011;4517;49.020;12.066;2022-07-29T10:46:24;5.30;;;3.20;;
8964;SDS011;4517;49.020;12.066;2022-07-29T10:49:06;4.20;;;3.70;;
8964;SDS011;4517;49.020;12.066;2022-07-29T10:54:18;3.60;;;3.30;;
8964;SDS011;4517;49.020;12.066;2022-07-29T10:57:18;3.17;;;2.87;;
8964;SDS011;4517;49.020;12.066;2022-07-29T11:05:01;2.90;;;2.70;;
8964;SDS011;4517;49.020;12.066;2022-07-29T11:10:37;4.23;;;3.10;;
8964;SDS011;4517;49.020;12.066;2022-07-29T11:13:03;4.13;;;3.00;;
8964;SDS011;4517;49.020;12.066;2022-07-29T11:15:29;3.00;;;2.70;;
8964;SDS011;4517;49.020;12.066;2022-07-29T11:18:19;5.10;;;2.83;;
8964;SDS011;4517;49.020;12.066;2022-07-29T11:20:48;6.37;;;2.67;;
8964;SDS011;4517;49.020;12.066;2022-07-29T11:25:44;5.30;;;3.00;;
8964;SDS011;4517;49.020;12.066;2022-07-29T11:28:30;2.13;;;1.73;;
8964;SDS011;4517;49.020;12.066;2022-07-29T11:30:56;6.20;;;2.60;;
8964;SDS011;4517;49.020;12.066;2022-07-29T11:33:32;10.03;;;2.73;;
8964;SDS011;4517;49.020;12.066;2022-07-29T11:36:09;4.40;;;3.20;;
8964;SDS011;4517;49.020;12.066;2022-07-29T11:38:36;3.43;;;2.70;;
8964;SDS011;4517;49.020;12.066;2022-07-29T11:43:47;2.40;;;1.87;;
8964;SDS011;4517;49.020;12.066;2022-07-29T11:49:22;2.50;;;2.30;;
8964;SDS011;4517;49.020;12.066;2022-07-29T11:51:52;3.10;;;1.90;;
8964;SDS011;4517;49.020;12.066;2022-07-29T11:54:31;1.77;;;1.67;;
8964;SDS011;4517;49.020;12.066;2022-07-29T11:56:59;3.73;;;2.40;;
8964;SDS011;4517;49.020;12.066;2022-07-29T11:59:25;2.60;;;2.40;;
8964;SDS011;4517;49.020;12.066;2022-07-29T12:01:55;2.23;;;2.03;;
8964;SDS011;4517;49.020;12.066;2022-07-29T12:04:22;4.10;;;2.30;;
8964;SDS011;4517;49.020;12.066;2022-07-29T12:06:49;2.57;;;2.37;;
8964;SDS011;4517;49.020;12.066;2022-07-29T12:09:16;4.13;;;2.60;;
8964;SDS011;4517;49.020;12.066;2022-07-29T12:11:42;3.37;;;2.00;;
8964;SDS011;4517;49.020;12.066;2022-07-29T12:14:08;3.57;;;2.23;;
8964;SDS011;4517;49.020;12.066;2022-07-29T12:16:34;5.17;;;2.50;;
8964;SDS011;4517;49.020;12.066;2022-07-29T12:19:01;3.90;;;2.40;;
8964;SDS011;4517;49.020;12.066;2022-07-29T12:21:50;4.70;;;2.43;;
8964;SDS011;4517;49.020;12.066;2022-07-29T12:24:18;5.80;;;2.53;;
8964;SDS011;4517;49.020;12.066;2022-07-29T12:26:54;5.80;;;2.50;;
8964;SDS011;4517;49.020;12.066;2022-07-29T12:29:21;3.07;;;2.60;;
8964;SDS011;4517;49.020;12.066;2022-07-29T12:31:51;2.27;;;2.03;;
8964;SDS011;4517;49.020;12.066;2022-07-29T12:34:19;3.40;;;2.10;;
8964;SDS011;4517;49.020;12.066;2022-07-29T12:36:47;3.40;;;2.10;;
8964;SDS011;4517;49.020;12.066;2022-07-29T12:39:14;5.00;;;2.03;;
8964;SDS011;4517;49.020;12.066;2022-07-29T12:41:41;2.07;;;1.87;;
8964;SDS011;4517;49.020;12.066;2022-07-29T12:44:06;1.80;;;1.63;;
8964;SDS011;4517;49.020;12.066;2022-07-29T12:46:32;2.60;;;2.37;;
8964;SDS011;4517;49.020;12.066;2022-07-29T12:48:58;4.57;;;1.93;;
8964;SDS011;4517;49.020;12.066;2022-07-29T12:51:33;4.83;;;2.20;;
8964;SDS011;4517;49.020;12.066;2022-07-29T12:54:05;2.97;;;2.33;;
8964;SDS011;4517;49.020;12.066;2022-07-29T12:56:32;2.13;;;1.93;;
8964;SDS011;4517;49.020;12.066;2022-07-29T12:58:58;3.20;;;2.40;;
8964;SDS011;4517;49.020;12.066;2022-07-29T13:01:24;2.70;;;2.00;;
8964;SDS011;4517;49.020;12.066;2022-07-29T13:03:58;6.67;;;2.50;;
8964;SDS011;4517;49.020;12.066;2022-07-29T13:06:42;2.13;;;1.93;;
8964;SDS011;4517;49.020;12.066;2022-07-29T13:09:13;2.20;;;1.90;;
8964;SDS011;4517;49.020;12.066;2022-07-29T13:11:41;3.70;;;2.20;;
8964;SDS011;4517;49.020;12.066;2022-07-29T13:14:09;2.30;;;2.07;;
8964;SDS011;4517;49.020;12.066;2022-07-29T13:16:36;4.07;;;2.10;;
8964;SDS011;4517;49.020;12.066;2022-07-29T13:19:32;3.10;;;2.80;;
8964;SDS011;4517;49.020;12.066;2022-07-29T13:22:02;2.97;;;1.90;;
8964;SDS011;4517;49.020;12.066;2022-07-29T13:24:29;2.50;;;2.30;;
8964;SDS011;4517;49.020;12.066;2022-07-29T13:26:55;3.77;;;2.10;;
8964;SDS011;4517;49.020;12.066;2022-07-29T13:29:20;3.43;;;1.90;;
8964;SDS011;4517;49.020;12.066;2022-07-29T13:31:46;3.50;;;1.90;;
8964;SDS011;4517;49.020;12.066;2022-07-29T13:34:11;2.07;;;1.87;;
8964;SDS011;4517;49.020;12.066;2022-07-29T13:36:37;3.73;;;2.10;;
8964;SDS011;4517;49.020;12.066;2022-07-29T13:39:03;5.20;;;1.77;;
8964;SDS011;4517;49.020;12.066;2022-07-29T13:41:28;5.40;;;1.63;;
8964;SDS011;4517;49.020;12.066;2022-07-29T13:43:54;1.80;;;1.50;;
8964;SDS011;4517;49.020;12.066;2022-07-29T13:46:20;3.20;;;1.47;;
8964;SDS011;4517;49.020;12.066;2022-07-29T13:48:46;3.27;;;1.90;;
8964;SDS011;4517;49.020;12.066;2022-07-29T13:51:11;2.83;;;1.80;;
8964;SDS011;4517;49.020;12.066;2022-07-29T13:53:37;7.30;;;2.10;;
8964;SDS011;4517;49.020;12.066;2022-07-29T13:56:03;4.40;;;2.20;;
8964;SDS011;4517;49.020;12.066;2022-07-29T13:58:31;1.93;;;1.83;;
8964;SDS011;4517;49.020;12.066;2022-07-29T14:00:57;2.17;;;1.87;;
8964;SDS011;4517;49.020;12.066;2022-07-29T14:03:23;2.10;;;1.60;;
8964;SDS011;4517;49.020;12.066;2022-07-29T14:05:49;3.33;;;2.53;;
8964;SDS011;4517;49.020;12.066;2022-07-29T14:08:15;2.67;;;2.00;;
8964;SDS011;4517;49.020;12.066;2022-07-29T14:10:41;2.87;;;1.67;;
8964;SDS011;4517;49.020;12.066;2022-07-29T14:13:06;2.23;;;1.53;;
8964;SDS011;4517;49.020;12.066;2022-07-29T14:15:32;1.30;;;1.20;;
8964;SDS011;4517;49.020;12.066;2022-07-29T14:17:57;5.00;;;2.23;;
8964;SDS011;4517;49.020;12.066;2022-07-29T14:20:23;3.90;;;1.93;;
8964;SDS011;4517;49.020;12.066;2022-07-29T14:22:49;2.50;;;1.53;;
8964;SDS011;4517;49.020;12.066;2022-07-29T14:25:14;1.50;;;1.40;;
8964;SDS011;4517;49.020;12.066;2022-07-29T14:27:40;4.40;;;1.50;;
8964;SDS011;4517;49.020;12.066;2022-07-29T14:30:05;2.60;;;1.70;;
8964;SDS011;4517;49.020;12.066;2022-07-29T14:32:32;5.00;;;2.70;;
8964;SDS011;4517;49.020;12.066;2022-07-29T14:34:57;2.97;;;2.60;;
8964;SDS011;4517;49.020;12.066;2022-07-29T14:37:23;2.13;;;1.90;;
8964;SDS011;4517;49.020;12.066;2022-07-29T14:39:48;2.70;;;1.93;;
8964;SDS011;4517;49.020;12.066;2022-07-29T14:42:14;4.93;;;2.60;;
8964;SDS011;4517;49.020;12.066;2022-07-29T14:44:40;2.37;;;2.17;;
8964;SDS011;4517;49.020;12.066;2022-07-29T14:47:06;2.40;;;2.20;;
8964;SDS011;4517;49.020;12.066;2022-07-29T14:49:31;2.13;;;1.47;;
8964;SDS011;4517;49.020;12.066;2022-07-29T14:51:57;2.63;;;1.70;;
8964;SDS011;4517;49.020;12.066;2022-07-29T14:54:22;2.57;;;1.60;;
8964;SDS011;4517;49.020;12.066;2022-07-29T14:56:48;2.67;;;1.93;;
8964;SDS011;4517;49.020;12.066;2022-07-29T14:59:15;2.37;;;1.80;;
8964;SDS011;4517;49.020;12.066;2022-07-29T15:01:42;5.70;;;2.13;;
8964;SDS011;4517;49.020;12.066;2022-07-29T15:04:08;2.00;;;1.70;;
8964;SDS011;4517;49.020;12.066;2022-07-29T15:06:33;2.60;;;1.70;;
8964;SDS011;4517;49.020;12.066;2022-07-29T15:08:59;2.67;;;2.47;;
8964;SDS011;4517;49.020;12.066;2022-07-29T15:11:24;2.40;;;1.73;;
8964;SDS011;4517;49.020;12.066;2022-07-29T15:13:50;3.73;;;1.80;;
8964;SDS011;4517;49.020;12.066;2022-07-29T15:16:16;3.23;;;1.77;;
8964;SDS011;4517;49.020;12.066;2022-07-29T15:18:41;5.50;;;2.20;;
8964;SDS011;4517;49.020;12.066;2022-07-29T15:21:07;1.80;;;1.70;;
8964;SDS011;4517;49.020;12.066;2022-07-29T15:23:32;6.20;;;1.80;;
8964;SDS011;4517;49.020;12.066;2022-07-29T15:26:01;2.60;;;1.60;;
8964;SDS011;4517;49.020;12.066;2022-07-29T15:28:27;2.43;;;1.60;;
8964;SDS011;4517;49.020;12.066;2022-07-29T15:30:52;2.03;;;1.57;;
8964;SDS011;4517;49.020;12.066;2022-07-29T15:33:19;5.00;;;1.90;;
8964;SDS011;4517;49.020;12.066;2022-07-29T15:35:44;3.07;;;1.73;;
8964;SDS011;4517;49.020;12.066;2022-07-29T15:38:10;5.90;;;1.70;;
8964;SDS011;4517;49.020;12.066;2022-07-29T15:40:36;3.23;;;2.03;;
8964;SDS011;4517;49.020;12.066;2022-07-29T15:43:07;2.37;;;2.17;;
8964;SDS011;4517;49.020;12.066;2022-07-29T15:45:37;2.40;;;2.20;;
8964;SDS011;4517;49.020;12.066;2022-07-29T15:48:04;7.20;;;2.07;;
8964;SDS011;4517;49.020;12.066;2022-07-29T15:50:34;1.90;;;1.60;;